Time;durP1;ratioP1;P1;durP2;ratioP2;P2;SDS_P1;SDS_P2;PMS_P1;PMS_P2;Temp;Humidity;BMP_temperature;BMP_pressure;BME280_temperature;BME280_humidity;BME280_pressure;Samples;Min_cycle;Max_cycle;Signal;HPM_P1;HPM_P2
2021/06/08 00:01:17;;;;;;;4.47;3.50;;;17.90;99.90;;;;;;5093972;28;20282;-88
2021/06/08 00:03:43;;;;;;;3.25;2.90;;;17.80;99.90;;;;;;5092933;28;20623;-81
2021/06/08 00:06:10;;;;;;;3.20;2.90;;;17.90;99.90;;;;;;5092909;28;20594;-79
2021/06/08 00:08:37;;;;;;;4.15;2.92;;;17.70;99.90;;;;;;5092622;28;20622;-80
2021/06/08 00:11:04;;;;;;;6.60;3.33;;;17.70;99.90;;;;;;5093230;28;20238;-79
2021/06/08 00:13:32;;;;;;;3.67;3.38;;;17.70;99.90;;;;;;5089639;28;20688;-78
2021/06/08 00:15:58;;;;;;;6.18;3.70;;;17.70;99.90;;;;;;5091711;28;20197;-79
2021/06/08 00:18:25;;;;;;;4.20;3.53;;;17.70;99.90;;;;;;5093395;28;20202;-78
2021/06/08 00:20:52;;;;;;;3.97;3.47;;;17.70;99.90;;;;;;5089081;28;20603;-77
2021/06/08 00:23:18;;;;;;;4.03;3.58;;;17.60;99.90;;;;;;5082222;28;20205;-85
2021/06/08 00:25:45;;;;;;;3.88;2.83;;;17.60;99.90;;;;;;5092554;28;20201;-77
2021/06/08 00:28:11;;;;;;;5.63;3.15;;;17.50;99.90;;;;;;5092406;28;20209;-77
2021/06/08 00:30:39;;;;;;;5.00;3.47;;;17.50;99.90;;;;;;5092369;28;20214;-78
2021/06/08 00:33:06;;;;;;;4.57;3.20;;;17.50;99.90;;;;;;5092492;28;20201;-78
2021/06/08 00:35:32;;;;;;;6.22;3.53;;;17.50;99.90;;;;;;5092108;28;20209;-77
2021/06/08 00:37:59;;;;;;;4.80;3.25;;;17.50;99.90;;;;;;5092389;28;20198;-77
2021/06/08 00:40:27;;;;;;;4.65;3.63;;;17.50;99.90;;;;;;5092857;28;20604;-72
2021/06/08 00:42:54;;;;;;;4.10;3.30;;;17.40;99.90;;;;;;5092002;28;20208;-72
2021/06/08 00:45:21;;;;;;;4.22;3.83;;;17.30;99.90;;;;;;5083673;28;20240;-72
2021/06/08 00:47:49;;;;;;;5.13;3.67;;;17.30;99.90;;;;;;5086265;28;20213;-72
2021/06/08 00:50:16;;;;;;;6.72;3.97;;;17.30;99.90;;;;;;5092746;28;20216;-75
2021/06/08 00:52:43;;;;;;;4.47;3.60;;;17.20;99.90;;;;;;5090597;28;20202;-74
2021/06/08 00:55:11;;;;;;;5.22;3.10;;;17.20;99.90;;;;;;5092102;28;20206;-73
2021/06/08 00:57:38;;;;;;;4.65;3.20;;;17.30;99.90;;;;;;5091384;28;20206;-74
2021/06/08 01:00:06;;;;;;;3.13;2.78;;;17.30;99.90;;;;;;5091577;28;20229;-74
2021/06/08 01:02:34;;;;;;;3.63;3.33;;;17.20;99.90;;;;;;5091488;28;20212;-74
2021/06/08 01:05:03;;;;;;;3.63;3.28;;;17.20;99.90;;;;;;5091812;28;20289;-74
2021/06/08 01:07:32;;;;;;;5.35;2.88;;;17.20;99.90;;;;;;5091768;28;20232;-75
2021/06/08 01:09:59;;;;;;;3.15;2.92;;;17.20;99.90;;;;;;5091516;28;20209;-74
2021/06/08 01:12:26;;;;;;;5.50;3.15;;;17.00;99.90;;;;;;5092130;28;20209;-75
2021/06/08 01:14:53;;;;;;;2.70;2.50;;;17.10;99.90;;;;;;5091468;28;20213;-74
2021/06/08 01:17:19;;;;;;;3.13;2.78;;;17.10;99.90;;;;;;5091307;28;20212;-74
2021/06/08 01:19:47;;;;;;;3.70;2.83;;;17.00;99.90;;;;;;5091498;28;20225;-75
2021/06/08 01:22:15;;;;;;;6.10;3.75;;;17.10;99.90;;;;;;5091444;28;20216;-74
2021/06/08 01:24:44;;;;;;;4.68;3.33;;;17.10;99.90;;;;;;5091117;28;20567;-76
2021/06/08 01:27:11;;;;;;;4.55;3.03;;;17.10;99.90;;;;;;5091653;28;20205;-76
2021/06/08 01:29:40;;;;;;;3.45;3.25;;;17.10;99.90;;;;;;5090871;28;20205;-76
2021/06/08 01:32:08;;;;;;;4.22;3.22;;;17.10;99.90;;;;;;5091419;28;20611;-75
2021/06/08 01:34:36;;;;;;;4.15;3.75;;;17.00;99.90;;;;;;5090860;28;20634;-75
2021/06/08 01:37:03;;;;;;;3.03;2.72;;;17.10;99.90;;;;;;5091456;28;20212;-73
2021/06/08 01:39:33;;;;;;;5.00;2.55;;;17.00;99.90;;;;;;5090557;28;20229;-74
2021/06/08 01:42:00;;;;;;;6.25;3.30;;;17.00;99.90;;;;;;5091337;28;20249;-74
2021/06/08 01:44:28;;;;;;;4.95;2.97;;;17.00;99.90;;;;;;5091459;28;20201;-72
2021/06/08 01:46:54;;;;;;;4.38;3.75;;;16.90;99.90;;;;;;5091374;28;20233;-72
2021/06/08 01:49:21;;;;;;;5.50;3.75;;;16.90;99.90;;;;;;5091251;28;20213;-72
2021/06/08 01:51:58;;;;;;;3.83;3.03;;;16.90;99.90;;;;;;5090585;28;20206;-73
2021/06/08 01:54:34;;;;;;;3.78;3.38;;;16.80;99.90;;;;;;5072971;28;20202;-73
2021/06/08 01:57:08;;;;;;;8.63;3.15;;;16.80;99.90;;;;;;5070694;28;20657;-73
2021/06/08 01:59:50;;;;;;;4.03;3.63;;;16.80;99.90;;;;;;5070281;28;20221;-74
2021/06/08 02:02:22;;;;;;;4.75;3.60;;;16.80;99.90;;;;;;5070410;28;20202;-73
2021/06/08 02:04:56;;;;;;;6.68;3.70;;;16.60;99.90;;;;;;5070121;28;20206;-73
2021/06/08 02:07:32;;;;;;;3.92;3.25;;;16.60;99.90;;;;;;5070923;28;20198;-72
2021/06/08 02:10:09;;;;;;;6.00;3.85;;;16.60;99.90;;;;;;5070272;28;20242;-72
2021/06/08 02:12:36;;;;;;;4.18;3.78;;;16.60;99.90;;;;;;5070037;28;20202;-73
2021/06/08 02:15:05;;;;;;;4.70;3.95;;;16.60;99.90;;;;;;5070515;28;20210;-73
2021/06/08 02:17:40;;;;;;;5.05;3.90;;;16.50;99.90;;;;;;5070142;28;20256;-74
2021/06/08 02:20:09;;;;;;;3.97;3.65;;;16.40;99.90;;;;;;5070538;28;20233;-74
2021/06/08 02:22:40;;;;;;;4.07;3.17;;;16.50;99.90;;;;;;5069649;28;20210;-74
2021/06/08 02:25:12;;;;;;;4.55;3.95;;;16.50;99.90;;;;;;5070592;28;20202;-73
2021/06/08 02:27:39;;;;;;;8.18;5.03;;;16.50;99.90;;;;;;5069819;28;20276;-73
2021/06/08 02:30:07;;;;;;;6.40;4.05;;;16.50;99.90;;;;;;5070322;28;20210;-73
2021/06/08 02:32:35;;;;;;;7.72;4.25;;;16.40;99.90;;;;;;5069846;28;20233;-73
2021/06/08 02:35:03;;;;;;;6.80;4.68;;;16.50;99.90;;;;;;5069459;28;20251;-72
2021/06/08 02:37:30;;;;;;;7.75;4.85;;;16.40;99.90;;;;;;5069890;28;20210;-72
2021/06/08 02:39:57;;;;;;;6.10;3.78;;;16.40;99.90;;;;;;5070001;28;20226;-73
2021/06/08 02:42:25;;;;;;;5.70;4.35;;;16.40;99.90;;;;;;5070478;28;20612;-73
2021/06/08 02:44:54;;;;;;;4.25;3.75;;;16.40;99.90;;;;;;5069901;28;20209;-72
2021/06/08 02:47:21;;;;;;;3.92;3.53;;;16.40;99.90;;;;;;5070561;28;20206;-72
2021/06/08 02:49:49;;;;;;;13.40;3.78;;;16.30;99.90;;;;;;5069523;28;20214;-72
2021/06/08 02:52:17;;;;;;;5.20;3.80;;;16.20;99.90;;;;;;5070050;28;20271;-72
2021/06/08 02:54:44;;;;;;;5.20;3.90;;;16.20;99.90;;;;;;5069622;28;20229;-72
2021/06/08 02:57:12;;;;;;;4.82;4.13;;;16.20;99.90;;;;;;5070196;28;20601;-72
2021/06/08 02:59:42;;;;;;;3.97;3.60;;;16.20;99.90;;;;;;5069905;28;20238;-72
2021/06/08 03:02:13;;;;;;;6.10;3.72;;;16.20;99.90;;;;;;5069903;28;20207;-72
2021/06/08 03:04:46;;;;;;;3.63;3.28;;;16.20;99.90;;;;;;5069903;28;20213;-72
2021/06/08 03:07:16;;;;;;;4.55;3.50;;;16.10;99.90;;;;;;5069703;28;20202;-72
2021/06/08 03:09:53;;;;;;;4.57;3.70;;;16.10;99.90;;;;;;5069609;28;20214;-72
2021/06/08 03:12:22;;;;;;;4.38;3.75;;;16.00;99.90;;;;;;5069723;28;20681;-72
2021/06/08 03:14:52;;;;;;;6.40;4.30;;;16.00;99.90;;;;;;5069897;28;20633;-70
2021/06/08 03:17:23;;;;;;;5.10;4.32;;;16.10;99.90;;;;;;5072152;28;20293;-72
2021/06/08 03:19:52;;;;;;;5.03;3.85;;;16.00;99.90;;;;;;5073412;28;20222;-72
2021/06/08 03:22:21;;;;;;;7.53;4.28;;;16.10;99.90;;;;;;5073056;28;20629;-72
2021/06/08 03:24:52;;;;;;;4.70;3.40;;;15.90;99.90;;;;;;5073097;28;20217;-72
2021/06/08 03:27:21;;;;;;;5.68;3.92;;;16.00;99.90;;;;;;5073324;28;20371;-72
2021/06/08 03:29:48;;;;;;;5.55;4.00;;;16.00;99.90;;;;;;5062384;28;20214;-72
2021/06/08 03:32:17;;;;;;;4.88;4.38;;;16.00;99.90;;;;;;5073491;28;20217;-72
2021/06/08 03:34:45;;;;;;;5.68;3.67;;;16.00;99.90;;;;;;5073105;28;20199;-72
2021/06/08 03:37:12;;;;;;;4.82;3.42;;;16.00;99.90;;;;;;5073345;28;20214;-73
2021/06/08 03:39:40;;;;;;;4.00;3.63;;;15.90;99.90;;;;;;5073279;28;20253;-72
2021/06/08 03:42:08;;;;;;;9.00;3.75;;;15.90;99.90;;;;;;5073569;28;20210;-72
2021/06/08 03:44:35;;;;;;;5.93;3.85;;;16.00;99.90;;;;;;5072885;28;20206;-73
2021/06/08 03:47:03;;;;;;;5.65;4.07;;;15.90;99.90;;;;;;5073119;28;20217;-72
2021/06/08 03:49:32;;;;;;;6.93;4.55;;;15.90;99.90;;;;;;5072650;28;20202;-71
2021/06/08 03:51:59;;;;;;;6.72;4.15;;;15.90;99.90;;;;;;5073484;28;20198;-71
2021/06/08 03:54:25;;;;;;;4.88;4.13;;;15.90;99.90;;;;;;5073088;28;20264;-72
2021/06/08 03:56:54;;;;;;;4.32;3.60;;;15.80;99.90;;;;;;5073281;28;20205;-72
2021/06/08 03:59:23;;;;;;;5.68;3.75;;;15.80;99.90;;;;;;5072965;28;20248;-71
2021/06/08 04:01:50;;;;;;;7.57;4.03;;;15.80;99.90;;;;;;5072465;28;20206;-70
2021/06/08 04:04:17;;;;;;;6.20;4.35;;;15.70;99.90;;;;;;5073098;28;20294;-72
2021/06/08 04:06:46;;;;;;;6.03;4.07;;;15.70;99.90;;;;;;5072330;28;20217;-72
2021/06/08 04:09:13;;;;;;;5.50;3.22;;;15.70;99.90;;;;;;5072820;28;20626;-72
2021/06/08 04:11:42;;;;;;;3.72;3.38;;;15.80;99.90;;;;;;5072320;28;20595;-72
2021/06/08 04:14:10;;;;;;;4.35;3.58;;;15.80;99.90;;;;;;5072532;28;20206;-72
2021/06/08 04:16:37;;;;;;;4.45;3.70;;;15.80;99.90;;;;;;5072548;28;20202;-73
2021/06/08 04:19:09;;;;;;;5.90;3.67;;;15.80;99.90;;;;;;5072384;28;20290;-72
2021/06/08 04:21:36;;;;;;;5.28;3.80;;;15.80;99.90;;;;;;5072294;28;20258;-72
2021/06/08 04:24:06;;;;;;;6.55;4.15;;;15.70;99.90;;;;;;5072201;28;20206;-72
2021/06/08 04:26:33;;;;;;;6.70;4.13;;;15.70;99.90;;;;;;5071996;28;20206;-72
2021/06/08 04:29:00;;;;;;;3.78;3.20;;;15.70;99.90;;;;;;5072112;28;20264;-72
2021/06/08 04:31:27;;;;;;;5.57;3.92;;;15.60;99.90;;;;;;5073005;28;20206;-72
2021/06/08 04:33:54;;;;;;;4.80;4.30;;;15.70;99.90;;;;;;5071622;28;20206;-72
2021/06/08 04:36:24;;;;;;;3.90;3.47;;;15.80;99.90;;;;;;5072098;28;20206;-71
2021/06/08 04:38:51;;;;;;;9.23;3.85;;;15.80;99.90;;;;;;5071447;28;20753;-72
2021/06/08 04:41:19;;;;;;;5.88;4.03;;;15.70;99.90;;;;;;5071523;28;20746;-72
2021/06/08 04:43:45;;;;;;;6.30;3.78;;;15.70;99.90;;;;;;5071649;28;20293;-72
2021/06/08 04:46:13;;;;;;;6.22;3.85;;;15.70;99.90;;;;;;5071416;28;20739;-73
2021/06/08 04:48:41;;;;;;;5.55;4.32;;;15.60;99.90;;;;;;5071278;28;20268;-72
2021/06/08 04:51:08;;;;;;;5.47;4.15;;;15.60;99.90;;;;;;5071601;28;20206;-73
2021/06/08 04:53:35;;;;;;;5.32;4.82;;;15.60;99.90;;;;;;5071242;28;20210;-72
2021/06/08 04:56:02;;;;;;;6.07;3.78;;;15.60;99.90;;;;;;5071278;28;20217;-72
2021/06/08 04:58:30;;;;;;;6.75;4.85;;;15.70;99.90;;;;;;5072193;28;20214;-72
2021/06/08 05:01:00;;;;;;;6.10;4.85;;;15.70;99.90;;;;;;5071476;28;20774;-72
2021/06/08 05:03:32;;;;;;;8.52;4.60;;;15.80;99.90;;;;;;5071657;28;20203;-73
2021/06/08 05:06:01;;;;;;;4.97;4.35;;;15.90;99.90;;;;;;5071785;28;20213;-72
2021/06/08 05:08:34;;;;;;;5.75;4.40;;;15.90;99.90;;;;;;5070992;28;20202;-73
2021/06/08 05:11:06;;;;;;;6.05;3.95;;;16.00;99.90;;;;;;5070606;28;20542;-73
2021/06/08 05:13:36;;;;;;;6.03;4.40;;;15.90;99.90;;;;;;5070091;28;20205;-73
2021/06/08 05:16:05;;;;;;;5.35;4.50;;;16.00;99.90;;;;;;5071147;28;20666;-73
2021/06/08 05:18:33;;;;;;;8.93;4.15;;;16.10;99.90;;;;;;5070613;28;20214;-73
2021/06/08 05:21:00;;;;;;;6.78;4.68;;;16.20;99.90;;;;;;5071231;28;20226;-73
2021/06/08 05:23:27;;;;;;;7.07;4.65;;;16.20;99.90;;;;;;5071618;28;20224;-73
2021/06/08 05:25:54;;;;;;;4.50;4.07;;;16.30;99.90;;;;;;5070883;28;20206;-73
2021/06/08 05:28:21;;;;;;;8.60;5.50;;;16.30;99.90;;;;;;5071655;28;20213;-73
2021/06/08 05:30:49;;;;;;;5.68;3.85;;;16.30;99.90;;;;;;5070847;28;20229;-73
2021/06/08 05:33:20;;;;;;;5.63;4.30;;;16.30;99.90;;;;;;5070999;28;20206;-73
2021/06/08 05:35:46;;;;;;;8.80;5.15;;;16.30;99.90;;;;;;5070780;28;20214;-73
2021/06/08 05:38:13;;;;;;;5.32;4.35;;;16.40;99.90;;;;;;5071258;28;20297;-73
2021/06/08 05:40:43;;;;;;;10.63;4.47;;;16.40;99.90;;;;;;5070144;28;20244;-73
2021/06/08 05:43:10;;;;;;;8.00;4.93;;;16.40;99.90;;;;;;5070990;28;20210;-73
2021/06/08 05:45:37;;;;;;;12.90;5.55;;;16.40;99.90;;;;;;5070450;28;20289;-73
2021/06/08 05:48:06;;;;;;;4.30;3.83;;;16.50;99.90;;;;;;5070906;28;20205;-73
2021/06/08 05:50:32;;;;;;;7.20;4.30;;;16.60;99.90;;;;;;5070572;28;20214;-73
2021/06/08 05:53:00;;;;;;;5.00;4.55;;;16.70;99.90;;;;;;5070696;28;20209;-73
2021/06/08 05:55:29;;;;;;;6.60;4.30;;;16.80;99.90;;;;;;5071083;28;20248;-73
2021/06/08 05:57:57;;;;;;;7.15;5.10;;;16.90;99.90;;;;;;5071146;28;20217;-74
2021/06/08 06:00:24;;;;;;;6.13;4.72;;;17.10;99.90;;;;;;5070708;28;20226;-74
2021/06/08 06:02:52;;;;;;;4.57;4.07;;;17.10;99.90;;;;;;5070329;28;20221;-74
2021/06/08 06:05:20;;;;;;;6.07;4.13;;;17.20;99.90;;;;;;5070418;28;20205;-74
2021/06/08 06:07:47;;;;;;;4.82;4.15;;;17.20;99.90;;;;;;5070649;28;20611;-74
2021/06/08 06:10:13;;;;;;;7.75;6.25;;;17.30;99.90;;;;;;5070642;28;20217;-74
2021/06/08 06:12:41;;;;;;;6.18;4.55;;;17.40;99.90;;;;;;5070245;28;20737;-74
2021/06/08 06:15:09;;;;;;;5.70;4.55;;;17.60;99.90;;;;;;5070053;28;20210;-74
2021/06/08 06:17:38;;;;;;;5.55;4.68;;;17.60;99.90;;;;;;5070625;28;20206;-73
2021/06/08 06:20:07;;;;;;;5.90;4.60;;;17.60;99.90;;;;;;5070694;28;20225;-73
2021/06/08 06:22:37;;;;;;;7.95;4.70;;;17.60;99.90;;;;;;5069689;28;20296;-72
2021/06/08 06:25:05;;;;;;;6.40;5.20;;;17.70;99.90;;;;;;5070463;28;20202;-73
2021/06/08 06:27:34;;;;;;;6.53;4.82;;;17.80;99.90;;;;;;5069996;28;20778;-73
2021/06/08 06:30:01;;;;;;;5.10;4.65;;;17.90;99.90;;;;;;5070328;28;20268;-74
2021/06/08 06:32:28;;;;;;;9.88;5.18;;;18.00;99.90;;;;;;5076014;28;20198;-80
2021/06/08 06:34:55;;;;;;;4.40;3.88;;;18.10;99.90;;;;;;5070759;28;20206;-78
2021/06/08 06:37:23;;;;;;;5.05;4.45;;;18.30;99.90;;;;;;5070377;28;20210;-78
2021/06/08 06:39:53;;;;;;;5.82;3.67;;;18.50;99.90;;;;;;5070169;28;20234;-77
2021/06/08 06:42:22;;;;;;;4.60;3.85;;;18.60;99.90;;;;;;5070080;28;20209;-73
2021/06/08 06:44:51;;;;;;;7.30;3.92;;;18.80;99.90;;;;;;5069111;28;20597;-79
2021/06/08 06:47:18;;;;;;;6.00;4.20;;;18.90;99.90;;;;;;5069929;28;20755;-79
2021/06/08 06:49:45;;;;;;;7.65;4.18;;;19.40;99.90;;;;;;5068686;28;20280;-79
2021/06/08 06:52:12;;;;;;;6.50;3.85;;;19.50;99.90;;;;;;5076516;28;20208;-78
2021/06/08 06:54:39;;;;;;;5.47;3.92;;;19.40;99.90;;;;;;5075933;28;20574;-79
2021/06/08 06:57:07;;;;;;;5.82;4.07;;;19.40;99.90;;;;;;5074102;28;20669;-76
2021/06/08 06:59:34;;;;;;;6.40;5.05;;;19.40;99.90;;;;;;5072912;28;20564;-81
2021/06/08 07:02:01;;;;;;;3.78;3.40;;;19.40;99.90;;;;;;5073376;28;20206;-78
2021/06/08 07:04:28;;;;;;;5.32;4.15;;;19.70;99.90;;;;;;5073210;28;20233;-77
2021/06/08 07:06:56;;;;;;;7.60;3.83;;;19.90;99.90;;;;;;5070338;28;20696;-75
2021/06/08 07:09:24;;;;;;;7.22;3.67;;;20.10;99.90;;;;;;5081510;28;20682;-77
2021/06/08 07:11:52;;;;;;;7.00;3.33;;;20.00;99.90;;;;;;5073402;28;20210;-79
2021/06/08 07:14:20;;;;;;;8.93;3.25;;;20.10;99.90;;;;;;5072940;28;20230;-77
2021/06/08 07:16:47;;;;;;;3.70;2.70;;;20.20;99.90;;;;;;5072662;28;20751;-80
2021/06/08 07:19:15;;;;;;;5.22;3.03;;;20.40;99.90;;;;;;5079997;28;20197;-77
2021/06/08 07:21:42;;;;;;;4.93;3.15;;;20.60;99.90;;;;;;5086271;28;20245;-77
2021/06/08 07:24:10;;;;;;;3.60;3.30;;;20.60;99.90;;;;;;5075312;28;20210;-75
2021/06/08 07:26:38;;;;;;;4.00;3.60;;;20.70;99.90;;;;;;5080651;28;20214;-76
2021/06/08 07:29:07;;;;;;;5.28;3.75;;;20.80;99.90;;;;;;5086924;28;20632;-77
2021/06/08 07:31:45;;;;;;;6.15;2.70;;;20.90;99.90;;;;;;5074865;28;20210;-76
2021/06/08 07:34:17;;;;;;;3.63;3.30;;;21.60;99.90;;;;;;5077393;28;20198;-77
2021/06/08 07:36:46;;;;;;;3.38;3.08;;;21.40;99.90;;;;;;5092600;28;20216;-72
2021/06/08 07:39:21;;;;;;;3.10;2.80;;;21.40;99.90;;;;;;5076734;28;20202;-72
2021/06/08 07:41:54;;;;;;;3.65;3.05;;;22.00;99.90;;;;;;5066670;28;20618;-74
2021/06/08 07:44:28;;;;;;;5.90;3.03;;;25.50;99.90;;;;;;5073294;28;20210;-75
2021/06/08 07:47:00;;;;;;;9.18;3.63;;;25.20;99.90;;;;;;5078185;28;20236;-75
2021/06/08 07:49:28;;;;;;;6.82;3.20;;;24.10;99.90;;;;;;5086223;28;20249;-74
2021/06/08 07:51:55;;;;;;;4.43;3.70;;;23.10;99.90;;;;;;5089365;28;20314;-75
2021/06/08 07:54:23;;;;;;;4.68;3.13;;;22.70;99.90;;;;;;5072056;28;20206;-75
2021/06/08 07:56:51;;;;;;;3.00;2.67;;;23.10;99.90;;;;;;5079679;28;20701;-74
2021/06/08 07:59:17;;;;;;;4.97;3.65;;;24.30;99.90;;;;;;5075172;28;20206;-75
2021/06/08 08:01:44;;;;;;;3.15;2.85;;;25.20;99.90;;;;;;5077503;28;20274;-75
2021/06/08 08:04:18;;;;;;;9.82;4.65;;;25.60;99.90;;;;;;5086887;28;20339;-72
2021/06/08 08:06:46;;;;;;;4.15;3.33;;;25.70;99.90;;;;;;5078653;28;20202;-75
2021/06/08 08:09:13;;;;;;;3.72;3.25;;;26.60;99.90;;;;;;5074942;28;20210;-78
2021/06/08 08:11:42;;;;;;;4.50;2.50;;;26.80;99.90;;;;;;5076103;28;20218;-77
2021/06/08 08:14:11;;;;;;;3.55;2.92;;;26.30;99.90;;;;;;5064578;28;20205;-71
2021/06/08 08:16:39;;;;;;;2.85;2.60;;;27.70;99.90;;;;;;5074081;28;20583;-70
2021/06/08 08:19:06;;;;;;;2.90;2.50;;;27.80;99.90;;;;;;5073303;28;20331;-71
2021/06/08 08:21:33;;;;;;;3.45;3.10;;;27.60;99.90;;;;;;5071835;28;20238;-71
2021/06/08 08:24:00;;;;;;;2.97;2.65;;;26.00;99.90;;;;;;5072410;28;20202;-71
2021/06/08 08:26:27;;;;;;;5.85;3.53;;;25.50;99.90;;;;;;5071584;28;20264;-72
2021/06/08 08:28:58;;;;;;;2.88;2.13;;;24.50;99.90;;;;;;5071125;28;20323;-72
2021/06/08 08:31:28;;;;;;;4.10;2.70;;;24.10;99.90;;;;;;5072662;28;20628;-71
2021/06/08 08:33:54;;;;;;;3.42;2.65;;;24.00;99.90;;;;;;5075044;28;20730;-73
2021/06/08 08:36:21;;;;;;;3.03;2.67;;;24.20;99.90;;;;;;5074997;28;20214;-71
2021/06/08 08:38:49;;;;;;;3.10;2.63;;;24.00;99.90;;;;;;5077044;28;20309;-72
2021/06/08 08:41:17;;;;;;;3.40;2.50;;;24.60;99.90;;;;;;5075690;28;20234;-71
2021/06/08 08:43:45;;;;;;;3.22;2.92;;;24.90;99.90;;;;;;5077915;28;20210;-71
2021/06/08 08:46:12;;;;;;;2.50;2.13;;;25.10;99.90;;;;;;5074664;28;20198;-71
2021/06/08 08:48:40;;;;;;;3.33;2.60;;;25.80;99.90;;;;;;5078724;28;20206;-71
2021/06/08 08:51:07;;;;;;;8.93;3.78;;;25.80;99.90;;;;;;5081017;28;20631;-72
2021/06/08 08:53:36;;;;;;;4.32;3.38;;;25.40;99.90;;;;;;5077410;28;20211;-72
2021/06/08 08:56:04;;;;;;;4.72;2.75;;;25.50;99.90;;;;;;5078365;28;20208;-72
2021/06/08 08:58:32;;;;;;;2.88;2.15;;;26.50;99.90;;;;;;5079530;28;20206;-72
2021/06/08 09:01:00;;;;;;;3.92;2.97;;;28.60;99.90;;;;;;5085552;28;20324;-73
2021/06/08 09:03:27;;;;;;;3.10;2.90;;;28.00;99.90;;;;;;5068748;28;20206;-73
2021/06/08 09:05:56;;;;;;;3.38;2.25;;;28.00;99.90;;;;;;5072659;28;20201;-72
2021/06/08 09:08:23;;;;;;;3.70;2.50;;;27.50;99.90;;;;;;5074842;28;20267;-72
2021/06/08 09:10:51;;;;;;;5.10;3.05;;;27.00;99.90;;;;;;5070762;28;20682;-73
2021/06/08 09:13:19;;;;;;;2.50;2.25;;;26.90;99.90;;;;;;5073840;28;20213;-72
2021/06/08 09:15:46;;;;;;;3.28;2.45;;;26.80;99.90;;;;;;5069300;28;20198;-72
2021/06/08 09:18:12;;;;;;;3.03;2.22;;;26.60;99.90;;;;;;5071486;28;20214;-72
2021/06/08 09:20:39;;;;;;;3.13;2.33;;;26.70;99.90;;;;;;5070342;28;20225;-73
2021/06/08 09:23:07;;;;;;;2.50;2.30;;;26.60;99.90;;;;;;5069488;28;20645;-72
2021/06/08 09:25:45;;;;;;;3.45;2.30;;;26.60;99.90;;;;;;5070856;28;20236;-71
2021/06/08 09:28:28;;;;;;;7.50;2.28;;;26.50;99.90;;;;;;5071215;28;20210;-73
2021/06/08 09:30:57;;;;;;;3.67;2.40;;;27.60;99.90;;;;;;5071211;28;20205;-75
2021/06/08 09:33:25;;;;;;;4.65;2.17;;;27.20;99.90;;;;;;5071738;28;20205;-77
2021/06/08 09:35:53;;;;;;;3.67;2.17;;;26.90;99.90;;;;;;5070640;28;20217;-73
2021/06/08 09:38:20;;;;;;;4.75;2.55;;;27.80;99.90;;;;;;5070653;28;20666;-75
2021/06/08 09:40:47;;;;;;;1.77;1.65;;;27.40;99.90;;;;;;5070383;28;20654;-74
2021/06/08 09:43:15;;;;;;;2.28;2.08;;;27.10;99.90;;;;;;5069568;28;20619;-73
2021/06/08 09:45:45;;;;;;;3.38;2.28;;;26.70;99.90;;;;;;5070301;28;20301;-73
2021/06/08 09:48:13;;;;;;;7.72;2.33;;;26.40;99.90;;;;;;5070675;28;20225;-72
2021/06/08 09:50:43;;;;;;;4.45;2.60;;;26.80;99.90;;;;;;5071864;28;20210;-77
2021/06/08 09:53:18;;;;;;;3.13;2.20;;;27.70;99.90;;;;;;5074482;28;20201;-74
2021/06/08 09:55:53;;;;;;;1.52;1.42;;;28.50;99.90;;;;;;5076342;28;20210;-71
2021/06/08 09:58:20;;;;;;;2.63;2.42;;;28.00;99.90;;;;;;5072342;28;20210;-74
2021/06/08 10:01:15;;;;;;;5.55;1.88;;;29.50;99.90;;;;;;5075402;28;20226;-74
2021/06/08 10:03:44;;;;;;;4.65;2.28;;;31.10;99.90;;;;;;5064964;28;20201;-73
2021/06/08 10:06:12;;;;;;;2.03;1.80;;;29.30;99.90;;;;;;5069043;28;20673;-73
2021/06/08 10:08:49;;;;;;;2.15;1.73;;;29.50;99.90;;;;;;5071268;28;20263;-76
2021/06/08 10:11:16;;;;;;;3.55;2.10;;;30.30;99.90;;;;;;5072473;28;20205;-74
2021/06/08 10:13:42;;;;;;;17.45;8.98;;;31.20;99.90;;;;;;5073105;28;20215;-75
2021/06/08 10:16:11;;;;;;;7.50;3.70;;;34.70;99.90;;;;;;5073401;28;20205;-77
2021/06/08 10:18:44;;;;;;;6.35;3.33;;;36.60;99.90;;;;;;5076173;28;20196;-75
2021/06/08 10:21:12;;;;;;;4.75;3.28;;;38.00;99.90;;;;;;5072286;28;20232;-74
2021/06/08 10:23:39;;;;;;;1.88;1.77;;;37.50;99.90;;;;;;5073628;28;20209;-74
2021/06/08 10:26:07;;;;;;;3.13;1.85;;;37.10;99.90;;;;;;5072973;28;20255;-73
2021/06/08 10:28:33;;;;;;;4.18;1.80;;;36.50;99.90;;;;;;5074054;28;20208;-74
2021/06/08 10:31:01;;;;;;;2.65;1.80;;;37.50;99.90;;;;;;5074997;28;20203;-73
2021/06/08 10:33:29;;;;;;;3.60;2.17;;;37.90;99.90;;;;;;5064875;28;20208;-77
2021/06/08 10:35:57;;;;;;;2.28;1.80;;;33.80;99.90;;;;;;5070421;28;20201;-75
2021/06/08 10:38:24;;;;;;;1.50;1.40;;;30.80;99.90;;;;;;5073987;28;20205;-76
2021/06/08 10:40:53;;;;;;;3.92;1.90;;;28.80;99.90;;;;;;5069705;28;20287;-78
2021/06/08 10:43:24;;;;;;;2.20;2.03;;;27.90;99.90;;;;;;5076036;28;20210;-74
2021/06/08 10:45:55;;;;;;;3.60;2.53;;;27.40;99.90;;;;;;5071782;28;20205;-74
2021/06/08 10:48:26;;;;;;;3.00;1.75;;;27.40;99.90;;;;;;5068727;28;20206;-76
2021/06/08 10:51:11;;;;;;;1.30;1.20;;;27.40;99.90;;;;;;5068297;28;20580;-76
2021/06/08 10:53:41;;;;;;;1.55;1.10;;;26.90;99.90;;;;;;5070985;28;20209;-76
2021/06/08 10:56:21;;;;;;;1.48;1.30;;;27.30;99.90;;;;;;5072693;28;20674;-77
2021/06/08 10:58:51;;;;;;;1.95;1.80;;;26.90;99.90;;;;;;5069718;28;20205;-75
2021/06/08 11:01:49;;;;;;;2.05;1.70;;;27.00;99.90;;;;;;5069870;28;20372;-76
2021/06/08 11:04:23;;;;;;;2.90;1.80;;;27.40;99.90;;;;;;5069707;28;20241;-76
2021/06/08 11:06:56;;;;;;;1.70;1.60;;;27.30;99.90;;;;;;5069016;28;20213;-76
2021/06/08 11:09:35;;;;;;;2.03;1.50;;;26.90;99.90;;;;;;5070339;28;20244;-76
2021/06/08 11:12:04;;;;;;;1.90;1.50;;;26.80;99.90;;;;;;5069942;28;20202;-80
2021/06/08 11:14:54;;;;;;;1.50;1.40;;;26.60;99.90;;;;;;5068903;28;20209;-78
2021/06/08 11:17:39;;;;;;;2.20;1.75;;;26.90;99.90;;;;;;5068541;28;20199;-79
2021/06/08 11:20:20;;;;;;;1.45;1.35;;;26.90;99.90;;;;;;5069703;28;20210;-78
2021/06/08 11:22:55;;;;;;;1.55;1.45;;;26.70;99.90;;;;;;5058555;28;20655;-75
2021/06/08 11:25:47;;;;;;;2.63;2.15;;;26.70;99.90;;;;;;5069235;28;20202;-76
2021/06/08 11:28:15;;;;;;;2.08;1.83;;;26.70;99.90;;;;;;5067181;28;20690;-74
2021/06/08 11:30:43;;;;;;;2.58;1.60;;;26.90;99.90;;;;;;5069316;28;20212;-75
2021/06/08 11:33:27;;;;;;;1.42;1.33;;;26.80;99.90;;;;;;5070006;28;20206;-74
2021/06/08 11:35:54;;;;;;;2.42;1.83;;;26.80;99.90;;;;;;5069655;28;20678;-82
2021/06/08 11:38:33;;;;;;;3.58;2.17;;;26.60;99.90;;;;;;5068515;28;20259;-78
2021/06/08 11:41:08;;;;;;;1.88;1.65;;;26.40;99.90;;;;;;5078762;28;20240;-76
2021/06/08 11:43:58;;;;;;;1.70;1.60;;;26.60;99.90;;;;;;5067178;28;20201;-73
2021/06/08 11:46:56;;;;;;;1.75;1.55;;;26.60;99.90;;;;;;5075729;28;20206;-73
2021/06/08 11:49:24;;;;;;;1.73;1.33;;;26.70;99.90;;;;;;5062818;28;20206;-75
2021/06/08 11:52:09;;;;;;;2.17;1.40;;;26.90;99.90;;;;;;5072396;28;20677;-76
2021/06/08 11:54:54;;;;;;;1.58;1.42;;;27.00;99.90;;;;;;5071938;28;20221;-76
2021/06/08 11:57:38;;;;;;;1.40;1.30;;;27.20;99.90;;;;;;5072371;28;20221;-77
2021/06/08 12:00:08;;;;;;;2.08;1.70;;;27.40;99.90;;;;;;5066315;28;20263;-74
2021/06/08 12:02:37;;;;;;;2.28;1.52;;;27.30;99.90;;;;;;5082187;28;20202;-75
2021/06/08 12:05:13;;;;;;;1.90;1.80;;;27.40;99.90;;;;;;5077771;28;20210;-85
2021/06/08 12:07:42;;;;;;;1.30;1.20;;;27.30;99.90;;;;;;5072771;28;20591;-78
2021/06/08 12:10:11;;;;;;;2.20;1.55;;;27.20;99.90;;;;;;5073223;28;20704;-74
2021/06/08 12:12:49;;;;;;;1.80;1.70;;;27.40;99.90;;;;;;5083191;28;20276;-79
2021/06/08 12:15:24;;;;;;;1.65;1.55;;;27.60;99.90;;;;;;5086715;28;20568;-76
2021/06/08 12:18:02;;;;;;;6.10;1.15;;;27.70;99.90;;;;;;5082090;28;20212;-73
2021/06/08 12:20:29;;;;;;;1.58;1.48;;;27.50;99.90;;;;;;5077520;28;20233;-73
2021/06/08 12:22:55;;;;;;;1.30;1.20;;;27.20;99.90;;;;;;5064155;28;20241;-73
2021/06/08 12:25:25;;;;;;;1.23;1.10;;;27.30;99.90;;;;;;5073119;28;20212;-73
2021/06/08 12:27:51;;;;;;;1.33;1.23;;;27.40;99.90;;;;;;5076446;28;20210;-75
2021/06/08 12:30:22;;;;;;;2.53;1.15;;;27.30;99.90;;;;;;5072290;28;20206;-74
2021/06/08 12:32:59;;;;;;;2.33;1.30;;;27.40;99.90;;;;;;5078744;28;20198;-73
2021/06/08 12:35:32;;;;;;;4.50;1.65;;;27.60;99.90;;;;;;5072751;28;20202;-75
2021/06/08 12:38:10;;;;;;;3.42;1.40;;;27.30;99.90;;;;;;5065708;28;20280;-75
2021/06/08 12:40:38;;;;;;;2.05;1.60;;;27.40;99.90;;;;;;5071619;28;20649;-76
2021/06/08 12:43:05;;;;;;;1.27;1.17;;;27.40;99.90;;;;;;5069861;28;20210;-74
2021/06/08 12:45:32;;;;;;;1.30;1.20;;;27.80;99.90;;;;;;5079380;28;20255;-74
2021/06/08 12:47:59;;;;;;;1.52;1.42;;;27.70;99.90;;;;;;5083172;28;20252;-73
2021/06/08 12:50:30;;;;;;;6.25;1.73;;;27.90;99.90;;;;;;5079652;28;20210;-72
2021/06/08 12:53:02;;;;;;;1.55;1.17;;;27.40;99.90;;;;;;5074703;28;20767;-74
2021/06/08 12:55:32;;;;;;;2.92;1.52;;;27.40;99.90;;;;;;5090082;28;20209;-73
2021/06/08 12:58:03;;;;;;;2.75;1.30;;;27.60;99.90;;;;;;5076168;28;20221;-72